Latest Coastal Weather Observations for Hamilton Island

IDQ60701

Issued at 7:12 pm EST Tuesday 26 September 2017 (issued every 10 minutes, with the page automatically refreshed every 10 minutes)

About coastal observations | Map of coastal stations | Coastal observations for QLD | Marine services | Other Formats
Station Details ID: 033106 Name: HAMILTON ISLAND AIRPORT Lat: -20.37 Lon: 148.95 Height: 58.66 m
Data from the previous 72 hours. | See also: Recent months at Hamilton Island
Date/Time
EST
Temp
°C
Wind Pressure Rain since
9am
mm
Weather Cloud Vis
km
Sea
Height
m
Swell
Dir  Spd
kts
Gust
kts
hPa Trend Height
m
Period
s
Dir
26/07:00pm 23.6 NNW 18 21 1013.4 - 0.0 - Clear 10 - - - -
26/06:30pm 23.7 NNW 17 21 1013.2 - 0.0 - - 10 - - - -
26/06:00pm 24.0 NNW 19 22 1012.8 - 0.0 - - 10 - - - -
26/05:30pm 24.8 NNW 19 22 1012.7 - 0.0 - - 10 - - - -
26/05:00pm 25.6 NNW 20 23 1012.6 - 0.0 - - 10 - - - -
26/04:30pm 26.2 NNW 18 22 1012.4 - 0.0 - - 10 - - - -
26/04:00pm 26.6 NNW 19 21 1012.4 - 0.0 - - 10 - - - -
26/03:30pm 27.1 NNW 17 21 1012.7 - 0.0 - - 10 - - - -
26/03:00pm 27.6 NNW 16 20 1013.0 - 0.0 - - 10 - - - -
26/02:30pm 27.7 NNW 15 20 1013.5 - 0.0 - - 10 - - - -
26/02:00pm 27.4 NNW 17 20 1013.9 - 0.0 - - 10 - - - -
26/01:30pm 27.4 NW 14 18 1014.1 - 0.0 - - 10 - - - -
26/01:00pm 27.5 NNW 15 18 1014.5 - 0.0 - - 10 - - - -
26/12:30pm 27.4 NNW 14 17 1015.0 - 0.0 - - 10 - - - -
26/12:00pm 27.2 NNW 13 15 1015.6 - 0.0 - - 10 - - - -
26/11:30am 26.8 NNW 11 15 1016.2 - 0.0 - - 10 - - - -
26/11:00am 27.3 NW 10 14 1016.7 - 0.0 - - 10 - - - -
26/10:30am 26.5 NNW 9 13 1017.0 - 0.0 - - 10 - - - -
26/10:00am 26.2 NNW 8 10 1017.3 - 0.0 - - 10 - - - -
26/09:30am 25.0 WNW 6 9 1017.5 - 0.0 - - 10 - - - -
26/09:00am 25.0 NW 7 11 1017.4 - 0.0 - - 10 - - - -
26/08:30am 24.4 NW 7 10 1017.2 - 0.0 - - 10 - - - -
26/08:00am 23.9 NNW 5 7 1016.9 - 0.0 - - 10 - - - -
26/07:30am 22.9 NW 3 4 1016.6 - 0.0 - - 10 - - - -
26/07:00am 22.2 NW 1 3 1016.3 - 0.0 - - 10 - - - -
26/06:30am 21.7 NNW 4 5 1016.0 - 0.0 - - 10 - - - -
26/06:00am 20.9 WNW 1 3 1015.6 - 0.0 - - 10 - - - -
26/05:30am 20.9 NW 3 5 1015.3 - 0.0 - - 10 - - - -
26/05:00am 20.7 NW 3 4 1015.1 - 0.0 - - 10 - - - -
26/04:30am 21.0 NW 4 4 1014.8 - 0.0 - - 10 - - - -
26/04:00am 21.3 NNW 3 4 1014.7 - 0.0 - - 10 - - - -
26/03:30am 21.2 NW 2 4 1014.7 - 0.0 - - 10 - - - -
26/03:00am 21.1 NW 3 5 1014.7 - 0.0 - Mostly clear 10 - - - -
26/02:30am 21.2 CALM 0 0 1014.9 - 0.0 - Partly cloudy 10 - - - -
26/02:00am 21.0 CALM 0 0 1015.0 - 0.0 - Partly cloudy 10 - - - -
26/01:30am 21.0 CALM 0 0 1015.2 - 0.0 - Partly cloudy 10 - - - -
26/01:00am 21.0 NW 3 4 1015.4 - 0.0 - Partly cloudy 10 - - - -
26/12:30am 20.9 NNW 5 5 1015.7 - 0.0 - Partly cloudy 10 - - - -
26/12:00am 20.6 NNW 4 5 1015.8 - 0.0 - Partly cloudy 10 - - - -
 
Date/Time
EST
Temp
°C
Wind Pressure Rain since
9am
mm
Weather Cloud Vis
km
Sea
Height
m
Swell
Dir  Spd
kts
Gust
kts
hPa Trend Height
m
Period
s
Dir
25/11:30pm 20.9 NNW 3 5 1016.0 - 0.0 - - 10 - - - -
25/11:00pm 21.2 NW 3 4 1016.1 - 0.0 - - 10 - - - -
25/10:30pm 21.3 NNW 4 5 1016.1 - 0.0 - - 10 - - - -
25/10:00pm 21.2 NNW 5 6 1016.1 - 0.0 - - 10 - - - -
25/09:30pm 21.3 NNW 6 8 1016.2 - 0.0 - - 10 - - - -
25/09:00pm 21.7 N 5 8 1016.0 - 0.0 - - 10 - - - -
25/08:30pm 22.1 NNE 8 11 1015.7 - 0.0 - - 10 - - - -
25/08:00pm 22.2 NNE 9 11 1015.4 - 0.0 - - 10 - - - -
25/07:30pm 22.2 NNE 8 10 1015.0 - 0.0 - - 10 - - - -
25/07:00pm 22.5 NNE 9 11 1014.8 - 0.0 - - 10 - - - -
25/06:30pm 22.7 NE 9 11 1014.6 - 0.0 - - 10 - - - -
25/06:00pm 23.2 NNE 6 8 1014.3 - 0.0 - - 10 - - - -
25/05:30pm 24.6 NW 8 10 1014.0 - 0.0 - - 10 - - - -
25/05:00pm 24.9 NW 9 13 1013.9 - 0.0 - - 10 - - - -
25/04:30pm 25.8 NW 9 12 1013.8 - 0.0 - - 10 - - - -
25/04:00pm 25.9 NNW 11 13 1013.8 - 0.0 - - 10 - - - -
25/03:30pm 26.2 NNW 10 13 1013.9 - 0.0 - - 10 - - - -
25/03:00pm 26.6 NW 10 13 1013.9 - 0.0 - - 10 - - - -
25/02:30pm 27.2 NNW 7 10 1014.2 - 0.0 - - 10 - - - -
25/02:00pm 26.0 ESE 5 6 1014.5 - 0.0 - - 10 - - - -
25/01:30pm 26.9 NNW 6 8 1014.9 - 0.0 - - 10 - - - -
25/01:00pm 26.7 NW 8 11 1015.3 - 0.0 - - 10 - - - -
25/12:30pm 26.1 NW 8 10 1015.7 - 0.0 - - 10 - - - -
25/12:00pm 26.3 WSW 7 9 1016.2 - 0.0 - - 10 - - - -
25/11:30am 26.7 S 6 10 1016.6 - 0.0 - - 10 - - - -
25/11:00am 26.2 SW 5 8 1017.1 - 0.0 - - 10 - - - -
25/10:30am 26.3 WSW 8 11 1017.3 - 0.0 - - 10 - - - -
25/10:00am 26.7 ENE 6 11 1017.6 - 0.0 - - 10 - - - -
25/09:30am 26.0 ENE 8 11 1017.7 - 0.0 - - 10 - - - -
25/09:00am 25.4 ENE 10 12 1017.9 - 0.0 - - 10 - - - -
25/08:30am 25.2 ENE 10 11 1017.8 - 0.0 - Partly cloudy 10 - - - -
25/08:00am 24.5 ENE 5 8 1017.7 - 0.0 - - 10 - - - -
25/07:30am 23.0 NNW 3 3 1017.4 - 0.0 - - 10 - - - -
25/07:00am 22.2 NNE 1 4 1017.2 - 0.0 - Partly cloudy 10 - - - -
25/06:30am 21.7 NNE 4 6 1016.8 - 0.0 - - 10 - - - -
25/06:00am 21.3 N 5 6 1016.5 - 0.0 - Mostly clear 10 - - - -
25/05:30am 21.2 NNE 6 7 1016.2 - 0.0 - - 10 - - - -
25/05:00am 21.0 N 4 5 1016.0 - 0.0 - Partly cloudy 10 - - - -
25/04:30am 21.0 N 4 5 1015.6 - 0.0 - - 10 - - - -
25/04:00am 20.7 NNW 3 4 1015.5 - 0.0 - Partly cloudy 10 - - - -
25/03:30am 20.7 CALM 0 0 1015.3 - 0.0 - Partly cloudy 10 - - - -
25/03:00am 20.9 CALM 0 0 1015.4 - 0.0 - Mostly clear 10 - - - -
25/02:30am 20.9 CALM 0 0 1015.4 - 0.0 - Partly cloudy 10 - - - -
25/02:00am 21.1 CALM 0 0 1015.4 - 0.0 - Partly cloudy 10 - - - -
25/01:30am 21.1 NW 3 4 1015.6 - 0.0 - Cloudy 10 - - - -
25/01:12am 21.1 NW 3 4 1015.6 - 0.0 - Cloudy 10 - - - -
25/01:00am 21.2 NW 3 4 1015.6 - 0.0 - Cloudy 10 - - - -
25/12:36am 21.6 CALM 0 0 1015.7 - 0.0 - Partly cloudy 10 - - - -
25/12:30am 21.5 CALM 0 0 1015.7 - 0.0 - Partly cloudy 10 - - - -
25/12:00am 21.2 CALM 0 0 1015.6 - 0.0 - - 10 - - - -
 
Date/Time
EST
Temp
°C
Wind Pressure Rain since
9am
mm
Weather Cloud Vis
km
Sea
Height
m
Swell
Dir  Spd
kts
Gust
kts
hPa Trend Height
m
Period
s
Dir
24/11:30pm 21.4 CALM 0 0 1015.8 - 0.0 - - 10 - - - -
24/11:00pm 21.5 N 4 4 1015.9 - 0.0 - - 10 - - - -
24/10:30pm 21.6 NNW 4 5 1015.9 - 0.0 - - 10 - - - -
24/10:00pm 22.1 N 4 5 1016.1 - 0.0 - - 10 - - - -
24/09:30pm 21.6 NE 6 7 1016.1 - 0.0 - - 10 - - - -
24/09:00pm 21.8 NE 5 7 1016.0 - 0.0 - - 10 - - - -
24/08:30pm 22.1 NE 7 8 1015.9 - 0.0 - - 10 - - - -
24/08:00pm 22.3 NE 7 8 1015.5 - 0.0 - - 10 - - - -
24/07:30pm 22.6 NE 7 9 1015.3 - 0.0 - - 10 - - - -
24/07:00pm 22.7 NE 9 11 1015.1 - 0.0 - - 10 - - - -
24/06:30pm 22.9 NE 9 13 1014.8 - 0.0 - - 10 - - - -
24/06:00pm 23.4 NE 11 14 1014.6 - 0.0 - - 10 - - - -
24/05:30pm 24.4 NNE 6 9 1014.5 - 0.0 - - 10 - - - -
24/05:00pm 25.6 NNW 7 9 1014.2 - 0.0 - - 10 - - - -
24/04:30pm 26.5 NW 7 9 1014.2 - 0.0 - - 10 - - - -
24/04:00pm 25.4 ESE 6 12 1014.2 - 0.0 - - 10 - - - -
24/03:30pm 27.0 NW 8 10 1014.1 - 0.0 - - 10 - - - -
24/03:00pm 26.5 WNW 7 10 1014.3 - 0.0 - - 10 - - - -
24/02:30pm 26.9 WSW 8 11 1014.7 - 0.0 - - 10 - - - -
24/02:00pm 26.4 SSE 7 10 1015.1 - 0.0 - - 10 - - - -
24/01:30pm 25.9 SE 7 9 1015.4 - 0.0 - - 10 - - - -
24/01:00pm 27.4 SW 6 8 1015.9 - 0.0 - - 10 - - - -
24/12:30pm 27.1 W 6 7 1016.3 - 0.0 - Partly cloudy 10 - - - -
24/12:00pm 26.4 SSW 6 9 1016.7 - 0.0 - Mostly clear 10 - - - -
24/11:30am 25.5 SSW 7 8 1017.2 - 0.0 - Partly cloudy 10 - - - -
24/11:00am 24.6 SSW 7 9 1017.5 - 0.0 - Partly cloudy 10 - - - -
24/10:30am 25.9 WSW 5 8 1017.8 - 0.0 - Partly cloudy 10 - - - -
24/10:00am 26.4 ENE 9 12 1017.9 - 0.0 - Partly cloudy 10 - - - -
24/09:30am 25.3 ENE 11 13 1018.1 - 0.0 - Partly cloudy 10 - - - -
24/09:00am 25.3 ENE 11 14 1018.1 - 0.0 - Partly cloudy 10 - - - -
24/08:30am 24.4 ENE 9 13 1018.0 - 0.0 - Partly cloudy 10 - - - -
24/08:00am 24.3 ESE 6 8 1018.0 - 0.0 - - 10 - - - -
24/07:30am 22.8 ESE 3 5 1017.8 - 0.0 - Partly cloudy 10 - - - -
24/07:00am 21.6 CALM 0 3 1017.4 - 0.0 - - 10 - - - -
24/06:30am 20.8 CALM 0 0 1017.0 - 0.0 - - 10 - - - -
24/06:00am 20.5 CALM 0 0 1016.8 - 0.0 - - 10 - - - -
24/05:30am 20.6 NNW 2 3 1016.4 - 0.0 - - 10 - - - -
24/05:00am 20.8 NW 3 4 1016.3 - 0.0 - Partly cloudy 10 - - - -
24/04:30am 20.6 NW 3 3 1016.2 - 0.0 - - 10 - - - -
24/04:00am 20.9 NW 3 4 1016.0 - 0.0 - - 10 - - - -
24/03:30am 21.0 NW 4 5 1016.1 - 0.0 - Partly cloudy 10 - - - -
24/03:00am 21.3 N 4 5 1015.9 - 0.0 - - 10 - - - -
24/02:30am 21.3 NE 5 6 1015.9 - 0.0 - - 10 - - - -
24/02:00am 21.5 NE 4 5 1016.3 - 0.0 - Partly cloudy 10 - - - -
24/01:30am 21.5 ENE 4 5 1016.4 - 0.0 - Partly cloudy 10 - - - -
24/01:00am 21.8 NE 4 7 1016.6 - 0.0 - Partly cloudy 10 - - - -
24/12:30am 21.5 NE 4 5 1016.9 - 0.0 - - 10 - - - -
24/12:00am 21.9 ENE 4 5 1017.2 - 0.0 - - 10 - - - -
 
Date/Time
EST
Temp
°C
Wind Pressure Rain since
9am
mm
Weather Cloud Vis
km
Sea
Height
m
Swell
Dir  Spd
kts
Gust
kts
hPa Trend Height
m
Period
s
Dir
23/11:30pm 21.9 ENE 4 5 1017.3 - 0.0 - - 10 - - - -
23/11:00pm 22.1 NE 6 7 1017.5 - 0.0 - - 10 - - - -
23/10:30pm 21.9 ENE 7 8 1017.5 - 0.0 - - 10 - - - -
23/10:00pm 22.1 ENE 6 7 1017.5 - 0.0 - - 10 - - - -
23/09:30pm 22.2 ENE 5 7 1017.5 - 0.0 - - 10 - - - -
23/09:00pm 22.2 ENE 6 7 1017.2 - 0.0 - - 10 - - - -
23/08:30pm 22.1 NE 6 9 1017.2 - 0.0 - - 10 - - - -
23/08:00pm 22.3 NE 8 11 1016.9 - 0.0 - - 10 - - - -
23/07:30pm 22.6 NE 8 11 1016.5 - 0.0 - - 10 - - - -

Other Formats:

Comma delimited format used in spreadsheet applications
http://www.bom.gov.au/fwo/IDQ60701/IDQ60701.94368.axf

JavaScript Object Notation format (JSON) in row-major order
http://www.bom.gov.au/fwo/IDQ60701/IDQ60701.94368.json